sensor_id;sensor_type;location;lat;lon;timestamp;P1;durP1;ratioP1;P2;durP2;ratioP2
3704;SDS011;1868;48.918;9.438;2023-07-20T00:01:13;1.57;;;1.40;;
3704;SDS011;1868;48.918;9.438;2023-07-20T00:03:43;2.63;;;1.70;;
3704;SDS011;1868;48.918;9.438;2023-07-20T00:06:21;2.97;;;1.90;;
3704;SDS011;1868;48.918;9.438;2023-07-20T00:08:52;2.20;;;1.83;;
3704;SDS011;1868;48.918;9.438;2023-07-20T00:11:25;4.03;;;2.33;;
3704;SDS011;1868;48.918;9.438;2023-07-20T00:13:55;4.43;;;2.23;;
3704;SDS011;1868;48.918;9.438;2023-07-20T00:16:24;4.70;;;2.73;;
3704;SDS011;1868;48.918;9.438;2023-07-20T00:18:53;2.07;;;1.67;;
3704;SDS011;1868;48.918;9.438;2023-07-20T00:21:23;2.60;;;2.03;;
3704;SDS011;1868;48.918;9.438;2023-07-20T00:23:52;4.50;;;2.33;;
3704;SDS011;1868;48.918;9.438;2023-07-20T00:26:22;2.57;;;1.73;;
3704;SDS011;1868;48.918;9.438;2023-07-20T00:28:52;4.33;;;1.87;;
3704;SDS011;1868;48.918;9.438;2023-07-20T00:31:21;2.40;;;2.03;;
3704;SDS011;1868;48.918;9.438;2023-07-20T00:33:50;2.17;;;1.93;;
3704;SDS011;1868;48.918;9.438;2023-07-20T00:36:19;5.00;;;2.40;;
3704;SDS011;1868;48.918;9.438;2023-07-20T00:38:49;2.27;;;2.07;;
3704;SDS011;1868;48.918;9.438;2023-07-20T00:41:18;2.00;;;1.90;;
3704;SDS011;1868;48.918;9.438;2023-07-20T00:43:48;2.47;;;2.13;;
3704;SDS011;1868;48.918;9.438;2023-07-20T00:46:20;3.40;;;2.73;;
3704;SDS011;1868;48.918;9.438;2023-07-20T00:48:52;4.57;;;2.50;;
3704;SDS011;1868;48.918;9.438;2023-07-20T00:51:21;4.57;;;2.23;;
3704;SDS011;1868;48.918;9.438;2023-07-20T00:53:53;3.20;;;2.17;;
3704;SDS011;1868;48.918;9.438;2023-07-20T00:56:22;4.17;;;2.30;;
3704;SDS011;1868;48.918;9.438;2023-07-20T00:58:53;3.13;;;1.90;;
3704;SDS011;1868;48.918;9.438;2023-07-20T01:01:22;3.50;;;2.07;;
3704;SDS011;1868;48.918;9.438;2023-07-20T01:03:54;2.83;;;2.10;;
3704;SDS011;1868;48.918;9.438;2023-07-20T01:06:29;4.27;;;2.10;;
3704;SDS011;1868;48.918;9.438;2023-07-20T01:09:08;4.47;;;2.00;;
3704;SDS011;1868;48.918;9.438;2023-07-20T01:11:45;3.97;;;2.20;;
3704;SDS011;1868;48.918;9.438;2023-07-20T01:14:26;1.70;;;1.60;;
3704;SDS011;1868;48.918;9.438;2023-07-20T01:16:56;2.90;;;2.53;;
3704;SDS011;1868;48.918;9.438;2023-07-20T01:19:25;6.70;;;3.40;;
3704;SDS011;1868;48.918;9.438;2023-07-20T01:21:55;7.27;;;3.40;;
3704;SDS011;1868;48.918;9.438;2023-07-20T01:31:20;15.67;;;5.67;;
3704;SDS011;1868;48.918;9.438;2023-07-20T01:33:52;9.37;;;4.10;;
3704;SDS011;1868;48.918;9.438;2023-07-20T01:36:26;6.77;;;3.50;;
3704;SDS011;1868;48.918;9.438;2023-07-20T01:38:59;3.53;;;2.50;;
3704;SDS011;1868;48.918;9.438;2023-07-20T01:41:30;3.57;;;2.37;;
3704;SDS011;1868;48.918;9.438;2023-07-20T01:43:59;5.90;;;2.53;;
3704;SDS011;1868;48.918;9.438;2023-07-20T01:46:30;4.07;;;2.30;;
3704;SDS011;1868;48.918;9.438;2023-07-20T01:48:59;4.37;;;2.30;;
3704;SDS011;1868;48.918;9.438;2023-07-20T01:51:30;4.87;;;2.30;;
3704;SDS011;1868;48.918;9.438;2023-07-20T01:53:59;4.97;;;2.40;;
3704;SDS011;1868;48.918;9.438;2023-07-20T01:56:28;2.40;;;2.13;;
3704;SDS011;1868;48.918;9.438;2023-07-20T01:59:00;4.80;;;3.50;;
3704;SDS011;1868;48.918;9.438;2023-07-20T02:01:30;14.10;;;5.43;;
3704;SDS011;1868;48.918;9.438;2023-07-20T02:04:00;15.53;;;6.37;;
3704;SDS011;1868;48.918;9.438;2023-07-20T02:06:29;15.87;;;6.30;;
3704;SDS011;1868;48.918;9.438;2023-07-20T02:08:58;13.23;;;5.87;;
3704;SDS011;1868;48.918;9.438;2023-07-20T02:11:30;17.17;;;6.73;;
3704;SDS011;1868;48.918;9.438;2023-07-20T02:13:58;19.07;;;7.73;;
3704;SDS011;1868;48.918;9.438;2023-07-20T02:16:27;21.30;;;7.67;;
3704;SDS011;1868;48.918;9.438;2023-07-20T02:18:59;10.10;;;4.70;;
3704;SDS011;1868;48.918;9.438;2023-07-20T02:21:28;8.17;;;4.00;;
3704;SDS011;1868;48.918;9.438;2023-07-20T02:23:57;5.93;;;2.83;;
3704;SDS011;1868;48.918;9.438;2023-07-20T02:26:27;4.27;;;2.33;;
3704;SDS011;1868;48.918;9.438;2023-07-20T02:28:56;2.33;;;2.13;;
3704;SDS011;1868;48.918;9.438;2023-07-20T02:31:26;5.17;;;1.80;;
3704;SDS011;1868;48.918;9.438;2023-07-20T02:33:57;3.20;;;2.30;;
3704;SDS011;1868;48.918;9.438;2023-07-20T02:36:26;2.60;;;1.90;;
3704;SDS011;1868;48.918;9.438;2023-07-20T02:38:55;5.13;;;2.03;;
3704;SDS011;1868;48.918;9.438;2023-07-20T02:41:26;2.73;;;2.13;;
3704;SDS011;1868;48.918;9.438;2023-07-20T02:43:55;4.73;;;1.97;;
3704;SDS011;1868;48.918;9.438;2023-07-20T02:46:26;2.60;;;1.57;;
3704;SDS011;1868;48.918;9.438;2023-07-20T02:49:01;2.67;;;1.93;;
3704;SDS011;1868;48.918;9.438;2023-07-20T02:51:31;2.93;;;2.27;;
3704;SDS011;1868;48.918;9.438;2023-07-20T02:54:01;1.87;;;1.77;;
3704;SDS011;1868;48.918;9.438;2023-07-20T02:56:30;6.70;;;2.03;;
3704;SDS011;1868;48.918;9.438;2023-07-20T02:59:00;2.93;;;1.67;;
3704;SDS011;1868;48.918;9.438;2023-07-20T03:01:31;4.10;;;2.53;;
3704;SDS011;1868;48.918;9.438;2023-07-20T03:04:01;5.57;;;2.50;;
3704;SDS011;1868;48.918;9.438;2023-07-20T03:06:30;3.90;;;2.33;;
3704;SDS011;1868;48.918;9.438;2023-07-20T03:09:03;4.90;;;2.60;;
3704;SDS011;1868;48.918;9.438;2023-07-20T03:11:33;5.50;;;2.63;;
3704;SDS011;1868;48.918;9.438;2023-07-20T03:14:04;11.40;;;3.43;;
3704;SDS011;1868;48.918;9.438;2023-07-20T03:16:33;11.23;;;5.23;;
3704;SDS011;1868;48.918;9.438;2023-07-20T03:19:03;8.53;;;4.33;;
3704;SDS011;1868;48.918;9.438;2023-07-20T03:21:32;11.33;;;3.80;;
3704;SDS011;1868;48.918;9.438;2023-07-20T03:24:01;4.53;;;2.10;;
3704;SDS011;1868;48.918;9.438;2023-07-20T03:26:30;3.30;;;2.27;;
3704;SDS011;1868;48.918;9.438;2023-07-20T03:28:58;4.00;;;2.20;;
3704;SDS011;1868;48.918;9.438;2023-07-20T03:31:27;2.80;;;2.33;;
3704;SDS011;1868;48.918;9.438;2023-07-20T03:33:57;3.20;;;1.93;;
3704;SDS011;1868;48.918;9.438;2023-07-20T03:36:27;3.20;;;2.40;;
3704;SDS011;1868;48.918;9.438;2023-07-20T03:38:58;2.77;;;2.07;;
3704;SDS011;1868;48.918;9.438;2023-07-20T03:41:29;3.47;;;2.37;;
3704;SDS011;1868;48.918;9.438;2023-07-20T03:43:58;2.47;;;2.00;;
3704;SDS011;1868;48.918;9.438;2023-07-20T03:46:27;2.20;;;1.80;;
3704;SDS011;1868;48.918;9.438;2023-07-20T03:48:56;2.97;;;1.90;;
3704;SDS011;1868;48.918;9.438;2023-07-20T03:51:28;2.20;;;1.87;;
3704;SDS011;1868;48.918;9.438;2023-07-20T03:53:57;2.27;;;1.77;;
3704;SDS011;1868;48.918;9.438;2023-07-20T03:56:28;2.30;;;1.90;;
3704;SDS011;1868;48.918;9.438;2023-07-20T03:59:01;1.83;;;1.73;;
3704;SDS011;1868;48.918;9.438;2023-07-20T04:01:30;3.63;;;2.00;;
3704;SDS011;1868;48.918;9.438;2023-07-20T04:04:06;1.53;;;1.43;;
3704;SDS011;1868;48.918;9.438;2023-07-20T04:06:38;3.00;;;2.00;;
3704;SDS011;1868;48.918;9.438;2023-07-20T04:09:07;2.17;;;1.80;;
3704;SDS011;1868;48.918;9.438;2023-07-20T04:11:36;5.60;;;2.37;;
3704;SDS011;1868;48.918;9.438;2023-07-20T04:14:05;2.70;;;1.87;;
3704;SDS011;1868;48.918;9.438;2023-07-20T04:16:34;3.40;;;2.20;;
3704;SDS011;1868;48.918;9.438;2023-07-20T04:19:04;2.27;;;2.07;;
3704;SDS011;1868;48.918;9.438;2023-07-20T04:21:33;2.20;;;1.97;;
3704;SDS011;1868;48.918;9.438;2023-07-20T04:24:09;7.10;;;2.67;;
3704;SDS011;1868;48.918;9.438;2023-07-20T04:26:38;3.20;;;2.47;;
3704;SDS011;1868;48.918;9.438;2023-07-20T04:29:06;2.93;;;2.20;;
3704;SDS011;1868;48.918;9.438;2023-07-20T04:31:39;3.33;;;2.43;;
3704;SDS011;1868;48.918;9.438;2023-07-20T04:34:08;2.07;;;1.87;;
3704;SDS011;1868;48.918;9.438;2023-07-20T04:36:38;7.97;;;5.50;;
3704;SDS011;1868;48.918;9.438;2023-07-20T04:39:09;11.80;;;3.73;;
3704;SDS011;1868;48.918;9.438;2023-07-20T04:41:51;4.27;;;3.20;;
3704;SDS011;1868;48.918;9.438;2023-07-20T04:44:20;3.00;;;2.23;;
3704;SDS011;1868;48.918;9.438;2023-07-20T04:46:49;3.60;;;2.53;;
3704;SDS011;1868;48.918;9.438;2023-07-20T04:49:19;2.30;;;2.10;;
3704;SDS011;1868;48.918;9.438;2023-07-20T04:51:48;6.87;;;3.63;;
3704;SDS011;1868;48.918;9.438;2023-07-20T04:54:19;3.83;;;2.30;;
3704;SDS011;1868;48.918;9.438;2023-07-20T04:56:48;4.50;;;2.57;;
3704;SDS011;1868;48.918;9.438;2023-07-20T04:59:19;2.70;;;1.90;;
3704;SDS011;1868;48.918;9.438;2023-07-20T05:01:48;2.47;;;2.10;;
3704;SDS011;1868;48.918;9.438;2023-07-20T05:04:17;2.10;;;1.90;;
3704;SDS011;1868;48.918;9.438;2023-07-20T05:06:48;3.97;;;2.87;;
3704;SDS011;1868;48.918;9.438;2023-07-20T05:09:19;3.67;;;2.27;;
3704;SDS011;1868;48.918;9.438;2023-07-20T05:11:48;3.47;;;2.07;;
3704;SDS011;1868;48.918;9.438;2023-07-20T05:14:16;5.07;;;2.30;;
3704;SDS011;1868;48.918;9.438;2023-07-20T05:16:47;2.40;;;2.13;;
3704;SDS011;1868;48.918;9.438;2023-07-20T05:19:17;2.83;;;1.77;;
3704;SDS011;1868;48.918;9.438;2023-07-20T05:21:47;4.03;;;2.40;;
3704;SDS011;1868;48.918;9.438;2023-07-20T05:24:16;1.80;;;1.70;;
3704;SDS011;1868;48.918;9.438;2023-07-20T05:26:47;3.93;;;1.80;;
3704;SDS011;1868;48.918;9.438;2023-07-20T05:29:16;2.33;;;2.10;;
3704;SDS011;1868;48.918;9.438;2023-07-20T05:31:45;2.67;;;1.80;;
3704;SDS011;1868;48.918;9.438;2023-07-20T05:34:15;3.17;;;2.00;;
3704;SDS011;1868;48.918;9.438;2023-07-20T05:36:44;1.80;;;1.70;;
3704;SDS011;1868;48.918;9.438;2023-07-20T05:39:13;2.17;;;2.00;;
3704;SDS011;1868;48.918;9.438;2023-07-20T05:41:43;2.90;;;2.70;;
3704;SDS011;1868;48.918;9.438;2023-07-20T05:44:12;2.63;;;1.77;;
3704;SDS011;1868;48.918;9.438;2023-07-20T05:46:41;3.03;;;1.80;;
3704;SDS011;1868;48.918;9.438;2023-07-20T05:49:23;3.43;;;2.37;;
3704;SDS011;1868;48.918;9.438;2023-07-20T05:51:52;5.10;;;2.33;;
3704;SDS011;1868;48.918;9.438;2023-07-20T05:54:20;3.40;;;2.00;;
3704;SDS011;1868;48.918;9.438;2023-07-20T05:56:52;3.63;;;2.20;;
3704;SDS011;1868;48.918;9.438;2023-07-20T05:59:21;3.20;;;2.00;;
3704;SDS011;1868;48.918;9.438;2023-07-20T06:01:51;2.67;;;1.93;;
3704;SDS011;1868;48.918;9.438;2023-07-20T06:04:21;3.27;;;2.00;;
3704;SDS011;1868;48.918;9.438;2023-07-20T06:06:50;4.00;;;2.37;;
3704;SDS011;1868;48.918;9.438;2023-07-20T06:09:19;6.00;;;1.97;;
3704;SDS011;1868;48.918;9.438;2023-07-20T06:11:48;2.40;;;2.07;;
3704;SDS011;1868;48.918;9.438;2023-07-20T06:14:19;3.83;;;1.80;;
3704;SDS011;1868;48.918;9.438;2023-07-20T06:16:48;3.00;;;1.90;;
3704;SDS011;1868;48.918;9.438;2023-07-20T06:19:18;4.63;;;1.70;;
3704;SDS011;1868;48.918;9.438;2023-07-20T06:21:46;3.80;;;2.10;;
3704;SDS011;1868;48.918;9.438;2023-07-20T06:24:16;2.07;;;1.80;;
3704;SDS011;1868;48.918;9.438;2023-07-20T06:26:45;3.17;;;2.30;;
3704;SDS011;1868;48.918;9.438;2023-07-20T06:29:16;5.23;;;2.50;;
3704;SDS011;1868;48.918;9.438;2023-07-20T06:31:45;2.57;;;2.00;;
3704;SDS011;1868;48.918;9.438;2023-07-20T06:34:16;3.00;;;1.70;;
3704;SDS011;1868;48.918;9.438;2023-07-20T06:36:49;8.93;;;2.40;;
3704;SDS011;1868;48.918;9.438;2023-07-20T06:39:18;3.70;;;2.70;;
3704;SDS011;1868;48.918;9.438;2023-07-20T06:41:50;6.87;;;1.90;;
3704;SDS011;1868;48.918;9.438;2023-07-20T06:44:22;5.33;;;2.50;;
3704;SDS011;1868;48.918;9.438;2023-07-20T06:46:51;5.77;;;2.43;;
3704;SDS011;1868;48.918;9.438;2023-07-20T06:49:24;3.10;;;2.27;;
3704;SDS011;1868;48.918;9.438;2023-07-20T06:51:54;1.93;;;1.80;;
3704;SDS011;1868;48.918;9.438;2023-07-20T06:54:24;4.70;;;2.23;;
3704;SDS011;1868;48.918;9.438;2023-07-20T06:57:00;3.47;;;2.47;;
3704;SDS011;1868;48.918;9.438;2023-07-20T06:59:33;3.00;;;1.80;;
3704;SDS011;1868;48.918;9.438;2023-07-20T07:02:07;3.60;;;2.07;;
3704;SDS011;1868;48.918;9.438;2023-07-20T07:04:41;5.10;;;1.93;;
3704;SDS011;1868;48.918;9.438;2023-07-20T07:07:10;4.70;;;1.70;;
3704;SDS011;1868;48.918;9.438;2023-07-20T07:09:39;4.13;;;1.97;;
3704;SDS011;1868;48.918;9.438;2023-07-20T07:12:11;5.53;;;3.20;;
3704;SDS011;1868;48.918;9.438;2023-07-20T07:14:41;5.00;;;1.80;;
3704;SDS011;1868;48.918;9.438;2023-07-20T07:17:10;1.60;;;1.50;;
3704;SDS011;1868;48.918;9.438;2023-07-20T07:19:44;5.13;;;2.30;;
3704;SDS011;1868;48.918;9.438;2023-07-20T07:22:15;6.63;;;1.83;;
3704;SDS011;1868;48.918;9.438;2023-07-20T07:24:44;2.93;;;2.00;;
3704;SDS011;1868;48.918;9.438;2023-07-20T07:27:13;10.60;;;2.23;;
3704;SDS011;1868;48.918;9.438;2023-07-20T07:29:44;3.13;;;2.23;;
3704;SDS011;1868;48.918;9.438;2023-07-20T07:32:14;4.40;;;2.40;;
3704;SDS011;1868;48.918;9.438;2023-07-20T07:34:44;2.27;;;1.83;;
3704;SDS011;1868;48.918;9.438;2023-07-20T07:37:14;3.17;;;2.07;;
3704;SDS011;1868;48.918;9.438;2023-07-20T07:39:43;4.50;;;2.60;;
3704;SDS011;1868;48.918;9.438;2023-07-20T07:42:12;4.77;;;2.13;;
3704;SDS011;1868;48.918;9.438;2023-07-20T07:44:41;1.97;;;1.87;;
3704;SDS011;1868;48.918;9.438;2023-07-20T07:47:12;7.27;;;2.57;;
3704;SDS011;1868;48.918;9.438;2023-07-20T07:49:40;4.53;;;2.03;;
3704;SDS011;1868;48.918;9.438;2023-07-20T07:52:12;2.30;;;2.10;;
3704;SDS011;1868;48.918;9.438;2023-07-20T07:54:42;2.50;;;1.57;;
3704;SDS011;1868;48.918;9.438;2023-07-20T07:57:10;2.50;;;1.50;;
3704;SDS011;1868;48.918;9.438;2023-07-20T07:59:40;2.67;;;1.90;;
3704;SDS011;1868;48.918;9.438;2023-07-20T08:02:09;6.97;;;1.83;;
3704;SDS011;1868;48.918;9.438;2023-07-20T08:04:40;2.63;;;1.60;;
3704;SDS011;1868;48.918;9.438;2023-07-20T08:07:09;8.77;;;2.13;;
3704;SDS011;1868;48.918;9.438;2023-07-20T08:09:38;3.00;;;1.73;;
3704;SDS011;1868;48.918;9.438;2023-07-20T08:12:07;5.60;;;1.70;;
3704;SDS011;1868;48.918;9.438;2023-07-20T08:14:36;3.10;;;1.50;;
3704;SDS011;1868;48.918;9.438;2023-07-20T08:17:05;2.47;;;1.43;;
3704;SDS011;1868;48.918;9.438;2023-07-20T08:19:36;2.27;;;2.00;;
3704;SDS011;1868;48.918;9.438;2023-07-20T08:22:10;1.90;;;1.73;;
3704;SDS011;1868;48.918;9.438;2023-07-20T08:24:39;1.57;;;1.47;;
3704;SDS011;1868;48.918;9.438;2023-07-20T08:27:09;3.10;;;1.60;;
3704;SDS011;1868;48.918;9.438;2023-07-20T08:29:38;1.77;;;1.43;;
3704;SDS011;1868;48.918;9.438;2023-07-20T08:32:08;4.70;;;2.10;;
3704;SDS011;1868;48.918;9.438;2023-07-20T08:34:37;1.40;;;1.30;;
3704;SDS011;1868;48.918;9.438;2023-07-20T08:37:06;3.43;;;1.80;;
3704;SDS011;1868;48.918;9.438;2023-07-20T08:39:38;3.87;;;1.70;;
3704;SDS011;1868;48.918;9.438;2023-07-20T08:42:08;2.93;;;1.50;;
3704;SDS011;1868;48.918;9.438;2023-07-20T08:44:39;3.73;;;1.73;;
3704;SDS011;1868;48.918;9.438;2023-07-20T08:47:15;2.67;;;1.67;;
3704;SDS011;1868;48.918;9.438;2023-07-20T08:49:44;1.90;;;1.80;;
3704;SDS011;1868;48.918;9.438;2023-07-20T08:52:17;2.20;;;2.07;;
3704;SDS011;1868;48.918;9.438;2023-07-20T08:54:47;7.33;;;1.70;;
3704;SDS011;1868;48.918;9.438;2023-07-20T08:57:18;1.77;;;1.67;;
3704;SDS011;1868;48.918;9.438;2023-07-20T08:59:50;6.20;;;2.50;;
3704;SDS011;1868;48.918;9.438;2023-07-20T09:02:22;4.40;;;2.20;;
3704;SDS011;1868;48.918;9.438;2023-07-20T09:04:56;4.00;;;1.73;;
3704;SDS011;1868;48.918;9.438;2023-07-20T09:07:25;1.70;;;1.60;;
3704;SDS011;1868;48.918;9.438;2023-07-20T09:09:57;3.13;;;1.40;;
3704;SDS011;1868;48.918;9.438;2023-07-20T09:12:32;2.23;;;2.03;;
3704;SDS011;1868;48.918;9.438;2023-07-20T09:15:04;6.60;;;1.70;;
3704;SDS011;1868;48.918;9.438;2023-07-20T09:17:36;3.30;;;2.03;;
3704;SDS011;1868;48.918;9.438;2023-07-20T09:20:06;3.80;;;1.47;;
3704;SDS011;1868;48.918;9.438;2023-07-20T09:22:37;3.30;;;1.70;;
3704;SDS011;1868;48.918;9.438;2023-07-20T09:25:09;6.90;;;1.47;;
3704;SDS011;1868;48.918;9.438;2023-07-20T09:27:40;1.83;;;1.40;;
3704;SDS011;1868;48.918;9.438;2023-07-20T09:30:13;3.10;;;1.83;;
3704;SDS011;1868;48.918;9.438;2023-07-20T09:32:45;1.97;;;1.77;;
3704;SDS011;1868;48.918;9.438;2023-07-20T09:35:19;5.63;;;1.70;;
3704;SDS011;1868;48.918;9.438;2023-07-20T09:37:58;2.30;;;1.60;;
3704;SDS011;1868;48.918;9.438;2023-07-20T09:40:36;1.40;;;1.30;;
3704;SDS011;1868;48.918;9.438;2023-07-20T09:43:09;3.53;;;1.60;;
3704;SDS011;1868;48.918;9.438;2023-07-20T09:45:41;2.47;;;1.20;;
3704;SDS011;1868;48.918;9.438;2023-07-20T09:48:13;3.27;;;1.40;;
3704;SDS011;1868;48.918;9.438;2023-07-20T09:50:48;1.90;;;1.40;;
3704;SDS011;1868;48.918;9.438;2023-07-20T09:53:19;1.60;;;1.50;;
3704;SDS011;1868;48.918;9.438;2023-07-20T09:55:50;3.20;;;1.80;;
3704;SDS011;1868;48.918;9.438;2023-07-20T09:58:21;1.67;;;1.57;;
3704;SDS011;1868;48.918;9.438;2023-07-20T10:00:50;1.70;;;1.43;;
3704;SDS011;1868;48.918;9.438;2023-07-20T10:03:21;1.93;;;1.43;;
3704;SDS011;1868;48.918;9.438;2023-07-20T10:05:55;3.70;;;1.20;;
3704;SDS011;1868;48.918;9.438;2023-07-20T10:08:28;1.30;;;1.20;;
3704;SDS011;1868;48.918;9.438;2023-07-20T10:11:02;3.13;;;1.30;;
3704;SDS011;1868;48.918;9.438;2023-07-20T10:13:33;1.47;;;1.30;;
3704;SDS011;1868;48.918;9.438;2023-07-20T10:16:07;4.40;;;1.13;;
3704;SDS011;1868;48.918;9.438;2023-07-20T10:18:41;4.57;;;1.33;;
3704;SDS011;1868;48.918;9.438;2023-07-20T10:21:17;1.70;;;1.33;;
3704;SDS011;1868;48.918;9.438;2023-07-20T10:23:53;1.40;;;1.30;;
3704;SDS011;1868;48.918;9.438;2023-07-20T10:26:26;1.23;;;0.93;;
3704;SDS011;1868;48.918;9.438;2023-07-20T10:28:54;1.97;;;1.33;;
3704;SDS011;1868;48.918;9.438;2023-07-20T10:31:24;1.67;;;1.33;;
3704;SDS011;1868;48.918;9.438;2023-07-20T10:33:57;1.27;;;1.17;;
3704;SDS011;1868;48.918;9.438;2023-07-20T10:36:27;1.37;;;1.10;;
3704;SDS011;1868;48.918;9.438;2023-07-20T10:38:57;2.00;;;1.00;;
3704;SDS011;1868;48.918;9.438;2023-07-20T10:41:29;6.23;;;1.13;;
3704;SDS011;1868;48.918;9.438;2023-07-20T10:44:02;1.47;;;1.37;;
3704;SDS011;1868;48.918;9.438;2023-07-20T10:46:33;1.13;;;1.13;;
3704;SDS011;1868;48.918;9.438;2023-07-20T10:49:12;1.70;;;1.53;;
3704;SDS011;1868;48.918;9.438;2023-07-20T10:51:43;1.50;;;0.97;;
3704;SDS011;1868;48.918;9.438;2023-07-20T10:57:24;1.17;;;0.90;;
3704;SDS011;1868;48.918;9.438;2023-07-20T11:00:07;3.03;;;1.47;;
3704;SDS011;1868;48.918;9.438;2023-07-20T11:02:42;1.33;;;1.23;;
3704;SDS011;1868;48.918;9.438;2023-07-20T11:05:37;1.00;;;1.00;;
3704;SDS011;1868;48.918;9.438;2023-07-20T11:08:09;1.00;;;0.90;;
3704;SDS011;1868;48.918;9.438;2023-07-20T11:10:39;1.40;;;1.27;;
3704;SDS011;1868;48.918;9.438;2023-07-20T11:13:20;1.10;;;1.10;;
3704;SDS011;1868;48.918;9.438;2023-07-20T11:16:01;1.90;;;1.00;;
3704;SDS011;1868;48.918;9.438;2023-07-20T11:18:33;1.63;;;1.53;;
3704;SDS011;1868;48.918;9.438;2023-07-20T11:21:07;2.80;;;1.20;;
3704;SDS011;1868;48.918;9.438;2023-07-20T11:23:38;2.83;;;1.20;;
3704;SDS011;1868;48.918;9.438;2023-07-20T11:26:08;4.50;;;1.37;;
3704;SDS011;1868;48.918;9.438;2023-07-20T11:28:40;15.17;;;1.50;;
3704;SDS011;1868;48.918;9.438;2023-07-20T11:31:08;4.30;;;1.10;;
3704;SDS011;1868;48.918;9.438;2023-07-20T11:33:38;3.17;;;0.90;;
3704;SDS011;1868;48.918;9.438;2023-07-20T11:36:08;1.30;;;1.20;;
3704;SDS011;1868;48.918;9.438;2023-07-20T11:38:41;0.97;;;0.97;;
3704;SDS011;1868;48.918;9.438;2023-07-20T11:41:10;0.97;;;0.97;;
3704;SDS011;1868;48.918;9.438;2023-07-20T11:43:43;1.90;;;1.00;;
3704;SDS011;1868;48.918;9.438;2023-07-20T11:46:13;0.93;;;0.90;;
3704;SDS011;1868;48.918;9.438;2023-07-20T11:48:43;1.33;;;1.23;;
3704;SDS011;1868;48.918;9.438;2023-07-20T11:51:14;1.00;;;0.90;;
3704;SDS011;1868;48.918;9.438;2023-07-20T11:53:44;3.87;;;1.20;;
3704;SDS011;1868;48.918;9.438;2023-07-20T11:56:14;2.40;;;0.93;;
3704;SDS011;1868;48.918;9.438;2023-07-20T11:58:45;2.60;;;1.20;;
3704;SDS011;1868;48.918;9.438;2023-07-20T12:01:14;1.73;;;1.30;;
3704;SDS011;1868;48.918;9.438;2023-07-20T12:03:45;0.90;;;0.90;;
3704;SDS011;1868;48.918;9.438;2023-07-20T12:06:18;1.43;;;1.10;;
3704;SDS011;1868;48.918;9.438;2023-07-20T12:08:55;0.90;;;0.90;;
3704;SDS011;1868;48.918;9.438;2023-07-20T12:11:34;1.20;;;1.10;;
3704;SDS011;1868;48.918;9.438;2023-07-20T12:14:07;2.33;;;0.90;;
3704;SDS011;1868;48.918;9.438;2023-07-20T12:16:43;1.30;;;1.07;;
3704;SDS011;1868;48.918;9.438;2023-07-20T12:19:19;3.30;;;0.90;;
3704;SDS011;1868;48.918;9.438;2023-07-20T12:21:48;1.10;;;1.00;;
3704;SDS011;1868;48.918;9.438;2023-07-20T12:24:17;4.70;;;4.23;;
3704;SDS011;1868;48.918;9.438;2023-07-20T12:26:46;1.70;;;1.60;;
3704;SDS011;1868;48.918;9.438;2023-07-20T12:29:17;1.53;;;1.23;;
3704;SDS011;1868;48.918;9.438;2023-07-20T12:31:47;6.20;;;2.30;;
3704;SDS011;1868;48.918;9.438;2023-07-20T12:34:16;1.03;;;0.90;;
3704;SDS011;1868;48.918;9.438;2023-07-20T12:36:45;5.73;;;1.30;;
3704;SDS011;1868;48.918;9.438;2023-07-20T12:39:14;1.40;;;1.10;;
3704;SDS011;1868;48.918;9.438;2023-07-20T12:41:43;1.30;;;1.20;;
3704;SDS011;1868;48.918;9.438;2023-07-20T12:44:12;1.60;;;1.30;;
3704;SDS011;1868;48.918;9.438;2023-07-20T12:46:42;3.73;;;1.40;;
3704;SDS011;1868;48.918;9.438;2023-07-20T12:49:11;0.93;;;0.80;;
3704;SDS011;1868;48.918;9.438;2023-07-20T12:51:42;1.07;;;1.07;;
3704;SDS011;1868;48.918;9.438;2023-07-20T12:54:11;11.00;;;2.40;;
3704;SDS011;1868;48.918;9.438;2023-07-20T12:56:40;7.97;;;7.30;;
3704;SDS011;1868;48.918;9.438;2023-07-20T12:59:12;1.63;;;1.43;;
3704;SDS011;1868;48.918;9.438;2023-07-20T13:01:42;2.60;;;1.50;;
3704;SDS011;1868;48.918;9.438;2023-07-20T13:04:11;3.23;;;1.30;;
3704;SDS011;1868;48.918;9.438;2023-07-20T13:06:40;4.27;;;1.53;;
3704;SDS011;1868;48.918;9.438;2023-07-20T13:09:10;5.50;;;1.37;;
3704;SDS011;1868;48.918;9.438;2023-07-20T13:11:38;4.70;;;0.97;;
3704;SDS011;1868;48.918;9.438;2023-07-20T13:14:07;4.83;;;1.50;;
3704;SDS011;1868;48.918;9.438;2023-07-20T13:16:38;3.03;;;0.90;;
3704;SDS011;1868;48.918;9.438;2023-07-20T13:19:08;6.10;;;1.83;;
3704;SDS011;1868;48.918;9.438;2023-07-20T13:21:38;2.40;;;1.50;;
3704;SDS011;1868;48.918;9.438;2023-07-20T13:24:06;2.77;;;1.07;;
3704;SDS011;1868;48.918;9.438;2023-07-20T13:26:36;1.23;;;1.13;;
3704;SDS011;1868;48.918;9.438;2023-07-20T13:29:05;2.20;;;1.20;;
3704;SDS011;1868;48.918;9.438;2023-07-20T13:31:34;1.90;;;1.10;;
3704;SDS011;1868;48.918;9.438;2023-07-20T13:34:04;0.80;;;0.80;;
3704;SDS011;1868;48.918;9.438;2023-07-20T13:36:35;0.90;;;0.90;;
3704;SDS011;1868;48.918;9.438;2023-07-20T13:39:03;1.73;;;1.43;;
3704;SDS011;1868;48.918;9.438;2023-07-20T13:41:32;1.10;;;1.00;;
3704;SDS011;1868;48.918;9.438;2023-07-20T13:44:03;0.87;;;0.87;;
3704;SDS011;1868;48.918;9.438;2023-07-20T13:46:32;1.40;;;1.30;;
3704;SDS011;1868;48.918;9.438;2023-07-20T13:49:04;1.20;;;1.10;;
3704;SDS011;1868;48.918;9.438;2023-07-20T13:51:40;1.70;;;1.10;;
3704;SDS011;1868;48.918;9.438;2023-07-20T13:54:10;1.00;;;1.00;;
3704;SDS011;1868;48.918;9.438;2023-07-20T13:56:42;2.50;;;1.30;;
3704;SDS011;1868;48.918;9.438;2023-07-20T13:59:11;1.20;;;1.17;;
3704;SDS011;1868;48.918;9.438;2023-07-20T14:01:43;5.40;;;1.10;;
3704;SDS011;1868;48.918;9.438;2023-07-20T14:04:12;3.00;;;1.67;;
3704;SDS011;1868;48.918;9.438;2023-07-20T14:06:42;0.90;;;0.90;;
3704;SDS011;1868;48.918;9.438;2023-07-20T14:09:12;1.40;;;1.30;;
3704;SDS011;1868;48.918;9.438;2023-07-20T14:11:41;1.40;;;1.30;;
3704;SDS011;1868;48.918;9.438;2023-07-20T14:14:13;2.60;;;1.13;;
3704;SDS011;1868;48.918;9.438;2023-07-20T14:16:43;1.43;;;1.30;;
3704;SDS011;1868;48.918;9.438;2023-07-20T14:19:12;1.90;;;1.37;;
3704;SDS011;1868;48.918;9.438;2023-07-20T14:21:42;2.47;;;2.27;;
3704;SDS011;1868;48.918;9.438;2023-07-20T14:24:11;4.53;;;1.63;;
3704;SDS011;1868;48.918;9.438;2023-07-20T14:26:40;0.97;;;0.97;;
3704;SDS011;1868;48.918;9.438;2023-07-20T14:29:10;1.30;;;1.20;;
3704;SDS011;1868;48.918;9.438;2023-07-20T14:31:39;1.40;;;1.30;;
3704;SDS011;1868;48.918;9.438;2023-07-20T14:34:08;1.27;;;1.17;;
3704;SDS011;1868;48.918;9.438;2023-07-20T14:36:37;3.23;;;1.33;;
3704;SDS011;1868;48.918;9.438;2023-07-20T14:39:07;3.97;;;1.80;;
3704;SDS011;1868;48.918;9.438;2023-07-20T14:41:36;1.17;;;1.10;;
3704;SDS011;1868;48.918;9.438;2023-07-20T14:44:04;1.37;;;1.27;;
3704;SDS011;1868;48.918;9.438;2023-07-20T14:46:33;1.90;;;1.13;;
3704;SDS011;1868;48.918;9.438;2023-07-20T14:49:02;1.27;;;1.17;;
3704;SDS011;1868;48.918;9.438;2023-07-20T14:51:31;1.07;;;1.03;;
3704;SDS011;1868;48.918;9.438;2023-07-20T14:54:03;2.57;;;1.20;;
3704;SDS011;1868;48.918;9.438;2023-07-20T14:56:37;2.60;;;1.20;;
3704;SDS011;1868;48.918;9.438;2023-07-20T14:59:06;1.17;;;1.07;;
3704;SDS011;1868;48.918;9.438;2023-07-20T15:01:35;3.07;;;1.20;;
3704;SDS011;1868;48.918;9.438;2023-07-20T15:04:03;2.20;;;1.20;;
3704;SDS011;1868;48.918;9.438;2023-07-20T15:06:32;6.20;;;1.20;;
3704;SDS011;1868;48.918;9.438;2023-07-20T15:09:01;3.23;;;1.00;;
3704;SDS011;1868;48.918;9.438;2023-07-20T15:11:33;1.00;;;1.00;;
3704;SDS011;1868;48.918;9.438;2023-07-20T15:14:05;4.37;;;1.60;;
3704;SDS011;1868;48.918;9.438;2023-07-20T15:16:34;1.40;;;1.30;;
3704;SDS011;1868;48.918;9.438;2023-07-20T15:19:03;1.03;;;1.00;;
3704;SDS011;1868;48.918;9.438;2023-07-20T15:21:32;4.83;;;1.30;;
3704;SDS011;1868;48.918;9.438;2023-07-20T15:24:02;1.57;;;1.10;;
3704;SDS011;1868;48.918;9.438;2023-07-20T15:26:33;2.90;;;1.53;;
3704;SDS011;1868;48.918;9.438;2023-07-20T15:29:02;1.03;;;1.00;;
3704;SDS011;1868;48.918;9.438;2023-07-20T15:31:30;1.43;;;1.33;;
3704;SDS011;1868;48.918;9.438;2023-07-20T15:34:02;1.07;;;0.97;;
3704;SDS011;1868;48.918;9.438;2023-07-20T15:36:32;1.17;;;1.17;;
3704;SDS011;1868;48.918;9.438;2023-07-20T15:39:00;0.83;;;0.83;;
3704;SDS011;1868;48.918;9.438;2023-07-20T15:41:29;1.20;;;1.10;;
3704;SDS011;1868;48.918;9.438;2023-07-20T15:44:00;2.10;;;1.60;;
3704;SDS011;1868;48.918;9.438;2023-07-20T15:49:17;0.83;;;0.83;;